sensor_id;sensor_type;location;lat;lon;timestamp;P1;durP1;ratioP1;P2;durP2;ratioP2
77726;SDS011;68312;53.502;10.030;2023-04-03T00:01:00;3.00;;;1.42;;
77726;SDS011;68312;53.502;10.030;2023-04-03T00:03:27;4.05;;;1.70;;
77726;SDS011;68312;53.502;10.030;2023-04-03T00:05:53;6.18;;;1.75;;
77726;SDS011;68312;53.502;10.030;2023-04-03T00:08:19;3.83;;;1.45;;
77726;SDS011;68312;53.502;10.030;2023-04-03T00:10:44;5.18;;;1.75;;
77726;SDS011;68312;53.502;10.030;2023-04-03T00:13:10;5.35;;;1.38;;
77726;SDS011;68312;53.502;10.030;2023-04-03T00:15:37;3.72;;;1.50;;
77726;SDS011;68312;53.502;10.030;2023-04-03T00:18:04;3.35;;;1.23;;
77726;SDS011;68312;53.502;10.030;2023-04-03T00:20:31;6.15;;;1.80;;
77726;SDS011;68312;53.502;10.030;2023-04-03T00:22:58;3.83;;;1.35;;
77726;SDS011;68312;53.502;10.030;2023-04-03T00:25:25;5.80;;;1.30;;
77726;SDS011;68312;53.502;10.030;2023-04-03T00:27:51;5.68;;;1.60;;
77726;SDS011;68312;53.502;10.030;2023-04-03T00:30:17;6.80;;;1.98;;
77726;SDS011;68312;53.502;10.030;2023-04-03T00:32:47;5.82;;;1.98;;
77726;SDS011;68312;53.502;10.030;2023-04-03T00:35:14;3.95;;;1.65;;
77726;SDS011;68312;53.502;10.030;2023-04-03T00:37:41;7.35;;;1.92;;
77726;SDS011;68312;53.502;10.030;2023-04-03T00:40:08;4.65;;;1.98;;
77726;SDS011;68312;53.502;10.030;2023-04-03T00:42:36;5.80;;;2.08;;
77726;SDS011;68312;53.502;10.030;2023-04-03T00:47:31;5.53;;;1.85;;
77726;SDS011;68312;53.502;10.030;2023-04-03T00:49:57;4.60;;;2.00;;
77726;SDS011;68312;53.502;10.030;2023-04-03T00:52:25;4.90;;;2.20;;
77726;SDS011;68312;53.502;10.030;2023-04-03T00:54:58;6.55;;;2.20;;
77726;SDS011;68312;53.502;10.030;2023-04-03T00:57:30;5.85;;;1.42;;
77726;SDS011;68312;53.502;10.030;2023-04-03T01:00:00;3.58;;;1.50;;
77726;SDS011;68312;53.502;10.030;2023-04-03T01:02:34;7.22;;;1.60;;
77726;SDS011;68312;53.502;10.030;2023-04-03T01:05:00;3.63;;;1.20;;
77726;SDS011;68312;53.502;10.030;2023-04-03T01:07:27;6.20;;;1.85;;
77726;SDS011;68312;53.502;10.030;2023-04-03T01:09:57;7.63;;;1.60;;
77726;SDS011;68312;53.502;10.030;2023-04-03T01:12:33;6.05;;;1.60;;
77726;SDS011;68312;53.502;10.030;2023-04-03T01:15:10;7.78;;;2.05;;
77726;SDS011;68312;53.502;10.030;2023-04-03T01:17:56;7.68;;;1.83;;
77726;SDS011;68312;53.502;10.030;2023-04-03T01:25:49;7.20;;;1.90;;
77726;SDS011;68312;53.502;10.030;2023-04-03T01:28:22;7.38;;;1.80;;
77726;SDS011;68312;53.502;10.030;2023-04-03T01:31:00;6.57;;;2.13;;
77726;SDS011;68312;53.502;10.030;2023-04-03T01:33:45;6.47;;;1.90;;
77726;SDS011;68312;53.502;10.030;2023-04-03T01:36:14;6.85;;;2.13;;
77726;SDS011;68312;53.502;10.030;2023-04-03T01:38:53;9.45;;;2.60;;
77726;SDS011;68312;53.502;10.030;2023-04-03T01:41:20;6.88;;;2.30;;
77726;SDS011;68312;53.502;10.030;2023-04-03T01:43:47;8.20;;;2.88;;
77726;SDS011;68312;53.502;10.030;2023-04-03T01:46:15;6.30;;;2.67;;
77726;SDS011;68312;53.502;10.030;2023-04-03T01:48:41;9.73;;;3.03;;
77726;SDS011;68312;53.502;10.030;2023-04-03T01:51:07;10.93;;;2.25;;
77726;SDS011;68312;53.502;10.030;2023-04-03T01:53:33;6.40;;;2.13;;
77726;SDS011;68312;53.502;10.030;2023-04-03T01:55:59;6.60;;;2.83;;
77726;SDS011;68312;53.502;10.030;2023-04-03T01:58:25;6.78;;;2.13;;
77726;SDS011;68312;53.502;10.030;2023-04-03T02:00:50;6.95;;;2.00;;
77726;SDS011;68312;53.502;10.030;2023-04-03T02:03:17;6.22;;;1.98;;
77726;SDS011;68312;53.502;10.030;2023-04-03T02:05:43;7.82;;;2.08;;
77726;SDS011;68312;53.502;10.030;2023-04-03T02:08:09;6.60;;;1.65;;
77726;SDS011;68312;53.502;10.030;2023-04-03T02:10:35;10.80;;;2.85;;
77726;SDS011;68312;53.502;10.030;2023-04-03T02:13:00;5.00;;;1.90;;
77726;SDS011;68312;53.502;10.030;2023-04-03T02:15:26;6.38;;;1.83;;
77726;SDS011;68312;53.502;10.030;2023-04-03T02:17:51;10.00;;;2.42;;
77726;SDS011;68312;53.502;10.030;2023-04-03T02:20:17;6.20;;;1.83;;
77726;SDS011;68312;53.502;10.030;2023-04-03T02:22:43;7.00;;;2.20;;
77726;SDS011;68312;53.502;10.030;2023-04-03T02:25:08;5.22;;;1.98;;
77726;SDS011;68312;53.502;10.030;2023-04-03T02:27:35;4.10;;;1.90;;
77726;SDS011;68312;53.502;10.030;2023-04-03T02:30:01;9.55;;;2.30;;
77726;SDS011;68312;53.502;10.030;2023-04-03T02:32:28;4.93;;;2.22;;
77726;SDS011;68312;53.502;10.030;2023-04-03T02:34:54;7.43;;;2.38;;
77726;SDS011;68312;53.502;10.030;2023-04-03T02:37:20;7.13;;;2.00;;
77726;SDS011;68312;53.502;10.030;2023-04-03T02:39:46;6.43;;;1.80;;
77726;SDS011;68312;53.502;10.030;2023-04-03T02:42:11;6.28;;;2.30;;
77726;SDS011;68312;53.502;10.030;2023-04-03T02:44:38;6.43;;;1.60;;
77726;SDS011;68312;53.502;10.030;2023-04-03T02:47:03;8.48;;;2.17;;
77726;SDS011;68312;53.502;10.030;2023-04-03T02:49:30;4.18;;;1.75;;
77726;SDS011;68312;53.502;10.030;2023-04-03T02:51:56;8.30;;;2.22;;
77726;SDS011;68312;53.502;10.030;2023-04-03T02:54:22;3.85;;;1.80;;
77726;SDS011;68312;53.502;10.030;2023-04-03T02:56:49;5.00;;;2.13;;
77726;SDS011;68312;53.502;10.030;2023-04-03T02:59:15;8.48;;;2.38;;
77726;SDS011;68312;53.502;10.030;2023-04-03T03:01:41;7.97;;;1.80;;
77726;SDS011;68312;53.502;10.030;2023-04-03T03:04:06;7.85;;;1.75;;
77726;SDS011;68312;53.502;10.030;2023-04-03T03:06:32;10.35;;;1.75;;
77726;SDS011;68312;53.502;10.030;2023-04-03T03:08:58;6.68;;;2.40;;
77726;SDS011;68312;53.502;10.030;2023-04-03T03:11:23;5.95;;;1.80;;
77726;SDS011;68312;53.502;10.030;2023-04-03T03:13:50;5.72;;;1.70;;
77726;SDS011;68312;53.502;10.030;2023-04-03T03:16:15;6.55;;;1.88;;
77726;SDS011;68312;53.502;10.030;2023-04-03T03:18:40;4.65;;;1.73;;
77726;SDS011;68312;53.502;10.030;2023-04-03T03:21:06;5.95;;;1.40;;
77726;SDS011;68312;53.502;10.030;2023-04-03T03:23:32;4.65;;;1.85;;
77726;SDS011;68312;53.502;10.030;2023-04-03T03:25:59;4.13;;;1.75;;
77726;SDS011;68312;53.502;10.030;2023-04-03T03:28:30;9.02;;;1.58;;
77726;SDS011;68312;53.502;10.030;2023-04-03T03:30:57;5.88;;;1.40;;
77726;SDS011;68312;53.502;10.030;2023-04-03T03:33:23;9.80;;;2.03;;
77726;SDS011;68312;53.502;10.030;2023-04-03T03:35:50;8.65;;;1.92;;
77726;SDS011;68312;53.502;10.030;2023-04-03T03:38:17;6.85;;;2.05;;
77726;SDS011;68312;53.502;10.030;2023-04-03T03:40:43;4.78;;;1.50;;
77726;SDS011;68312;53.502;10.030;2023-04-03T03:43:09;6.30;;;1.52;;
77726;SDS011;68312;53.502;10.030;2023-04-03T03:45:35;6.15;;;1.88;;
77726;SDS011;68312;53.502;10.030;2023-04-03T03:48:01;5.88;;;1.90;;
77726;SDS011;68312;53.502;10.030;2023-04-03T03:50:27;4.07;;;1.63;;
77726;SDS011;68312;53.502;10.030;2023-04-03T03:52:53;7.13;;;1.85;;
77726;SDS011;68312;53.502;10.030;2023-04-03T03:55:18;6.63;;;1.85;;
77726;SDS011;68312;53.502;10.030;2023-04-03T03:57:44;6.03;;;2.00;;
77726;SDS011;68312;53.502;10.030;2023-04-03T04:00:09;4.90;;;1.60;;
77726;SDS011;68312;53.502;10.030;2023-04-03T04:02:35;5.40;;;2.15;;
77726;SDS011;68312;53.502;10.030;2023-04-03T04:05:01;7.88;;;2.35;;
77726;SDS011;68312;53.502;10.030;2023-04-03T04:07:27;4.65;;;1.85;;
77726;SDS011;68312;53.502;10.030;2023-04-03T04:09:54;7.80;;;2.30;;
77726;SDS011;68312;53.502;10.030;2023-04-03T04:12:20;3.63;;;1.60;;
77726;SDS011;68312;53.502;10.030;2023-04-03T04:14:46;7.00;;;2.72;;
77726;SDS011;68312;53.502;10.030;2023-04-03T04:17:12;10.10;;;2.85;;
77726;SDS011;68312;53.502;10.030;2023-04-03T04:19:39;6.75;;;2.67;;
77726;SDS011;68312;53.502;10.030;2023-04-03T04:22:05;6.72;;;2.58;;
77726;SDS011;68312;53.502;10.030;2023-04-03T04:24:31;3.33;;;1.60;;
77726;SDS011;68312;53.502;10.030;2023-04-03T04:26:56;7.65;;;2.53;;
77726;SDS011;68312;53.502;10.030;2023-04-03T04:29:22;7.78;;;2.28;;
77726;SDS011;68312;53.502;10.030;2023-04-03T04:31:47;8.10;;;2.42;;
77726;SDS011;68312;53.502;10.030;2023-04-03T04:34:13;3.58;;;2.17;;
77726;SDS011;68312;53.502;10.030;2023-04-03T04:36:39;3.92;;;1.98;;
77726;SDS011;68312;53.502;10.030;2023-04-03T04:39:05;10.65;;;3.05;;
77726;SDS011;68312;53.502;10.030;2023-04-03T04:41:31;10.18;;;2.58;;
77726;SDS011;68312;53.502;10.030;2023-04-03T04:43:57;10.10;;;3.15;;
77726;SDS011;68312;53.502;10.030;2023-04-03T04:46:23;9.98;;;2.92;;
77726;SDS011;68312;53.502;10.030;2023-04-03T04:48:49;8.30;;;3.17;;
77726;SDS011;68312;53.502;10.030;2023-04-03T04:51:15;12.70;;;2.83;;
77726;SDS011;68312;53.502;10.030;2023-04-03T04:53:40;11.02;;;3.95;;
77726;SDS011;68312;53.502;10.030;2023-04-03T04:56:07;5.93;;;2.83;;
77726;SDS011;68312;53.502;10.030;2023-04-03T04:58:33;8.20;;;2.90;;
77726;SDS011;68312;53.502;10.030;2023-04-03T05:01:02;12.60;;;3.05;;
77726;SDS011;68312;53.502;10.030;2023-04-03T05:03:33;8.35;;;2.22;;
77726;SDS011;68312;53.502;10.030;2023-04-03T05:05:59;8.45;;;2.88;;
77726;SDS011;68312;53.502;10.030;2023-04-03T05:08:25;6.38;;;2.72;;
77726;SDS011;68312;53.502;10.030;2023-04-03T05:10:51;12.32;;;2.53;;
77726;SDS011;68312;53.502;10.030;2023-04-03T05:13:18;6.53;;;2.28;;
77726;SDS011;68312;53.502;10.030;2023-04-03T05:15:43;6.80;;;2.63;;
77726;SDS011;68312;53.502;10.030;2023-04-03T05:18:09;13.95;;;2.83;;
77726;SDS011;68312;53.502;10.030;2023-04-03T05:20:35;7.20;;;2.25;;
77726;SDS011;68312;53.502;10.030;2023-04-03T05:23:01;9.70;;;2.63;;
77726;SDS011;68312;53.502;10.030;2023-04-03T05:25:28;7.05;;;2.42;;
77726;SDS011;68312;53.502;10.030;2023-04-03T05:27:54;4.80;;;2.20;;
77726;SDS011;68312;53.502;10.030;2023-04-03T05:30:19;6.53;;;2.00;;
77726;SDS011;68312;53.502;10.030;2023-04-03T05:32:45;5.38;;;2.28;;
77726;SDS011;68312;53.502;10.030;2023-04-03T05:35:10;6.78;;;2.95;;
77726;SDS011;68312;53.502;10.030;2023-04-03T05:37:37;6.72;;;2.33;;
77726;SDS011;68312;53.502;10.030;2023-04-03T05:40:03;6.03;;;2.40;;
77726;SDS011;68312;53.502;10.030;2023-04-03T05:42:30;10.30;;;2.33;;
77726;SDS011;68312;53.502;10.030;2023-04-03T05:44:56;4.85;;;1.92;;
77726;SDS011;68312;53.502;10.030;2023-04-03T05:47:22;7.15;;;2.60;;
77726;SDS011;68312;53.502;10.030;2023-04-03T05:49:48;5.38;;;2.17;;
77726;SDS011;68312;53.502;10.030;2023-04-03T05:52:22;7.72;;;2.20;;
77726;SDS011;68312;53.502;10.030;2023-04-03T05:54:54;9.57;;;2.65;;
77726;SDS011;68312;53.502;10.030;2023-04-03T05:57:20;4.80;;;2.25;;
77726;SDS011;68312;53.502;10.030;2023-04-03T05:59:46;7.10;;;1.80;;
77726;SDS011;68312;53.502;10.030;2023-04-03T06:02:13;4.47;;;2.08;;
77726;SDS011;68312;53.502;10.030;2023-04-03T06:04:44;8.45;;;1.95;;
77726;SDS011;68312;53.502;10.030;2023-04-03T06:07:11;13.80;;;2.33;;
77726;SDS011;68312;53.502;10.030;2023-04-03T06:09:42;4.85;;;2.35;;
77726;SDS011;68312;53.502;10.030;2023-04-03T06:12:08;7.55;;;2.05;;
77726;SDS011;68312;53.502;10.030;2023-04-03T06:14:34;7.78;;;2.67;;
77726;SDS011;68312;53.502;10.030;2023-04-03T06:17:01;8.77;;;2.25;;
77726;SDS011;68312;53.502;10.030;2023-04-03T06:19:27;9.85;;;2.67;;
77726;SDS011;68312;53.502;10.030;2023-04-03T06:21:53;11.38;;;2.80;;
77726;SDS011;68312;53.502;10.030;2023-04-03T06:24:19;8.40;;;2.70;;
77726;SDS011;68312;53.502;10.030;2023-04-03T06:26:47;5.57;;;1.77;;
77726;SDS011;68312;53.502;10.030;2023-04-03T06:29:14;5.97;;;2.15;;
77726;SDS011;68312;53.502;10.030;2023-04-03T06:31:40;7.13;;;2.40;;
77726;SDS011;68312;53.502;10.030;2023-04-03T06:34:06;5.90;;;1.92;;
77726;SDS011;68312;53.502;10.030;2023-04-03T06:36:32;8.80;;;2.00;;
77726;SDS011;68312;53.502;10.030;2023-04-03T06:38:59;3.75;;;1.88;;
77726;SDS011;68312;53.502;10.030;2023-04-03T06:41:26;5.90;;;2.15;;
77726;SDS011;68312;53.502;10.030;2023-04-03T06:43:52;4.72;;;1.90;;
77726;SDS011;68312;53.502;10.030;2023-04-03T06:46:19;4.82;;;1.65;;
77726;SDS011;68312;53.502;10.030;2023-04-03T06:48:47;2.90;;;1.40;;
77726;SDS011;68312;53.502;10.030;2023-04-03T06:51:19;3.58;;;1.70;;
77726;SDS011;68312;53.502;10.030;2023-04-03T06:53:51;8.32;;;1.70;;
77726;SDS011;68312;53.502;10.030;2023-04-03T06:56:24;4.72;;;2.10;;
77726;SDS011;68312;53.502;10.030;2023-04-03T06:58:52;9.38;;;2.05;;
77726;SDS011;68312;53.502;10.030;2023-04-03T07:01:22;4.30;;;1.63;;
77726;SDS011;68312;53.502;10.030;2023-04-03T07:03:53;6.45;;;2.30;;
77726;SDS011;68312;53.502;10.030;2023-04-03T07:06:21;4.18;;;1.50;;
77726;SDS011;68312;53.502;10.030;2023-04-03T07:08:47;4.45;;;1.08;;
77726;SDS011;68312;53.502;10.030;2023-04-03T07:11:14;5.82;;;1.25;;
77726;SDS011;68312;53.502;10.030;2023-04-03T07:13:40;5.63;;;1.40;;
77726;SDS011;68312;53.502;10.030;2023-04-03T07:16:06;5.25;;;1.92;;
77726;SDS011;68312;53.502;10.030;2023-04-03T07:18:33;3.30;;;1.13;;
77726;SDS011;68312;53.502;10.030;2023-04-03T07:20:59;5.00;;;1.20;;
77726;SDS011;68312;53.502;10.030;2023-04-03T07:23:25;4.05;;;1.05;;
77726;SDS011;68312;53.502;10.030;2023-04-03T07:25:51;3.63;;;0.85;;
77726;SDS011;68312;53.502;10.030;2023-04-03T07:28:19;4.38;;;1.30;;
77726;SDS011;68312;53.502;10.030;2023-04-03T07:31:10;6.70;;;1.00;;
77726;SDS011;68312;53.502;10.030;2023-04-03T07:33:38;3.35;;;1.00;;
77726;SDS011;68312;53.502;10.030;2023-04-03T07:36:06;2.92;;;0.85;;
77726;SDS011;68312;53.502;10.030;2023-04-03T07:38:33;4.18;;;0.95;;
77726;SDS011;68312;53.502;10.030;2023-04-03T07:41:01;3.30;;;0.95;;
77726;SDS011;68312;53.502;10.030;2023-04-03T07:43:28;6.70;;;0.95;;
77726;SDS011;68312;53.502;10.030;2023-04-03T07:45:54;4.93;;;0.85;;
77726;SDS011;68312;53.502;10.030;2023-04-03T07:48:21;3.97;;;1.25;;
77726;SDS011;68312;53.502;10.030;2023-04-03T07:50:51;4.05;;;0.77;;
77726;SDS011;68312;53.502;10.030;2023-04-03T07:53:17;1.70;;;0.60;;
77726;SDS011;68312;53.502;10.030;2023-04-03T07:55:43;1.75;;;0.60;;
77726;SDS011;68312;53.502;10.030;2023-04-03T07:58:14;2.85;;;0.80;;
77726;SDS011;68312;53.502;10.030;2023-04-03T08:00:44;2.40;;;0.80;;
77726;SDS011;68312;53.502;10.030;2023-04-03T08:03:11;5.47;;;0.95;;
77726;SDS011;68312;53.502;10.030;2023-04-03T08:05:38;4.28;;;0.90;;
77726;SDS011;68312;53.502;10.030;2023-04-03T08:08:13;4.30;;;1.05;;
77726;SDS011;68312;53.502;10.030;2023-04-03T08:10:49;5.75;;;1.20;;
77726;SDS011;68312;53.502;10.030;2023-04-03T08:13:19;2.22;;;0.68;;
77726;SDS011;68312;53.502;10.030;2023-04-03T08:15:46;5.60;;;1.05;;
77726;SDS011;68312;53.502;10.030;2023-04-03T08:18:13;1.58;;;0.57;;
77726;SDS011;68312;53.502;10.030;2023-04-03T08:20:41;2.53;;;1.02;;
77726;SDS011;68312;53.502;10.030;2023-04-03T08:23:07;5.47;;;0.73;;
77726;SDS011;68312;53.502;10.030;2023-04-03T08:25:41;3.63;;;0.77;;
77726;SDS011;68312;53.502;10.030;2023-04-03T08:28:07;5.70;;;0.68;;
77726;SDS011;68312;53.502;10.030;2023-04-03T08:30:38;3.92;;;0.93;;
77726;SDS011;68312;53.502;10.030;2023-04-03T08:33:07;2.28;;;0.80;;
77726;SDS011;68312;53.502;10.030;2023-04-03T08:35:37;4.07;;;0.77;;
77726;SDS011;68312;53.502;10.030;2023-04-03T08:38:07;2.22;;;0.80;;
77726;SDS011;68312;53.502;10.030;2023-04-03T08:40:35;7.03;;;1.00;;
77726;SDS011;68312;53.502;10.030;2023-04-03T08:46:19;4.13;;;0.88;;
77726;SDS011;68312;53.502;10.030;2023-04-03T08:48:58;2.03;;;0.65;;
77726;SDS011;68312;53.502;10.030;2023-04-03T08:51:24;3.55;;;0.88;;
77726;SDS011;68312;53.502;10.030;2023-04-03T08:54:04;3.35;;;0.80;;
77726;SDS011;68312;53.502;10.030;2023-04-03T08:56:53;3.75;;;0.80;;
77726;SDS011;68312;53.502;10.030;2023-04-03T08:59:28;1.95;;;0.70;;
77726;SDS011;68312;53.502;10.030;2023-04-03T09:02:01;2.08;;;0.57;;
77726;SDS011;68312;53.502;10.030;2023-04-03T09:04:51;3.47;;;0.55;;
77726;SDS011;68312;53.502;10.030;2023-04-03T09:07:28;5.05;;;0.80;;
77726;SDS011;68312;53.502;10.030;2023-04-03T09:10:08;2.72;;;0.63;;
77726;SDS011;68312;53.502;10.030;2023-04-03T09:12:39;2.38;;;0.60;;
77726;SDS011;68312;53.502;10.030;2023-04-03T09:15:22;4.28;;;0.77;;
77726;SDS011;68312;53.502;10.030;2023-04-03T09:18:02;3.97;;;0.90;;
77726;SDS011;68312;53.502;10.030;2023-04-03T09:23:50;2.35;;;0.50;;
77726;SDS011;68312;53.502;10.030;2023-04-03T09:26:30;2.17;;;0.93;;
77726;SDS011;68312;53.502;10.030;2023-04-03T09:29:23;3.55;;;1.05;;
77726;SDS011;68312;53.502;10.030;2023-04-03T09:31:50;4.00;;;0.77;;
77726;SDS011;68312;53.502;10.030;2023-04-03T09:34:26;5.00;;;1.15;;
77726;SDS011;68312;53.502;10.030;2023-04-03T09:37:01;2.72;;;1.10;;
77726;SDS011;68312;53.502;10.030;2023-04-03T09:39:31;2.40;;;1.10;;
77726;SDS011;68312;53.502;10.030;2023-04-03T09:42:20;3.38;;;1.25;;
77726;SDS011;68312;53.502;10.030;2023-04-03T09:44:59;2.25;;;0.73;;
77726;SDS011;68312;53.502;10.030;2023-04-03T09:52:54;1.00;;;0.50;;
77726;SDS011;68312;53.502;10.030;2023-04-03T09:55:23;2.30;;;0.60;;
77726;SDS011;68312;53.502;10.030;2023-04-03T09:58:04;3.60;;;0.70;;
77726;SDS011;68312;53.502;10.030;2023-04-03T10:00:55;2.22;;;0.90;;
77726;SDS011;68312;53.502;10.030;2023-04-03T10:03:34;1.63;;;0.63;;
77726;SDS011;68312;53.502;10.030;2023-04-03T10:06:02;1.27;;;0.50;;
77726;SDS011;68312;53.502;10.030;2023-04-03T10:08:46;2.10;;;0.73;;
77726;SDS011;68312;53.502;10.030;2023-04-03T10:11:29;4.35;;;0.90;;
77726;SDS011;68312;53.502;10.030;2023-04-03T10:13:56;1.42;;;0.50;;
77726;SDS011;68312;53.502;10.030;2023-04-03T10:16:30;2.50;;;0.85;;
77726;SDS011;68312;53.502;10.030;2023-04-03T10:19:28;5.70;;;1.05;;
77726;SDS011;68312;53.502;10.030;2023-04-03T10:22:12;1.45;;;0.50;;
77726;SDS011;68312;53.502;10.030;2023-04-03T10:34:06;1.85;;;0.63;;
77726;SDS011;68312;53.502;10.030;2023-04-03T10:36:51;2.70;;;0.63;;
77726;SDS011;68312;53.502;10.030;2023-04-03T10:39:40;1.08;;;0.40;;
77726;SDS011;68312;53.502;10.030;2023-04-03T10:45:31;2.53;;;0.60;;
77726;SDS011;68312;53.502;10.030;2023-04-03T10:56:41;1.67;;;0.60;;
77726;SDS011;68312;53.502;10.030;2023-04-03T11:01:56;2.75;;;0.90;;
77726;SDS011;68312;53.502;10.030;2023-04-03T11:04:34;2.20;;;0.55;;
77726;SDS011;68312;53.502;10.030;2023-04-03T11:09:46;5.30;;;0.60;;
77726;SDS011;68312;53.502;10.030;2023-04-03T11:12:28;1.65;;;0.60;;
77726;SDS011;68312;53.502;10.030;2023-04-03T11:15:13;2.90;;;0.70;;
77726;SDS011;68312;53.502;10.030;2023-04-03T11:17:50;2.45;;;0.77;;
77726;SDS011;68312;53.502;10.030;2023-04-03T11:20:31;2.50;;;0.50;;
77726;SDS011;68312;53.502;10.030;2023-04-03T11:25:54;2.58;;;0.63;;
77726;SDS011;68312;53.502;10.030;2023-04-03T11:37:50;2.58;;;0.80;;
77726;SDS011;68312;53.502;10.030;2023-04-03T11:45:34;2.47;;;0.60;;
77726;SDS011;68312;53.502;10.030;2023-04-03T11:53:41;3.30;;;0.70;;
77726;SDS011;68312;53.502;10.030;2023-04-03T12:04:26;3.10;;;0.70;;
77726;SDS011;68312;53.502;10.030;2023-04-03T12:07:11;3.20;;;0.90;;
77726;SDS011;68312;53.502;10.030;2023-04-03T12:15:12;5.35;;;0.85;;
77726;SDS011;68312;53.502;10.030;2023-04-03T12:21:09;3.95;;;0.68;;
77726;SDS011;68312;53.502;10.030;2023-04-03T12:23:55;2.03;;;0.60;;
77726;SDS011;68312;53.502;10.030;2023-04-03T12:32:25;2.00;;;0.70;;
77726;SDS011;68312;53.502;10.030;2023-04-03T12:44:53;2.67;;;0.77;;
77726;SDS011;68312;53.502;10.030;2023-04-03T12:47:46;1.23;;;0.50;;
77726;SDS011;68312;53.502;10.030;2023-04-03T12:50:18;2.10;;;0.70;;
77726;SDS011;68312;53.502;10.030;2023-04-03T12:52:54;3.78;;;0.77;;
77726;SDS011;68312;53.502;10.030;2023-04-03T12:55:28;6.85;;;1.35;;
77726;SDS011;68312;53.502;10.030;2023-04-03T12:57:54;1.63;;;0.60;;
77726;SDS011;68312;53.502;10.030;2023-04-03T13:02:57;4.20;;;1.10;;
77726;SDS011;68312;53.502;10.030;2023-04-03T13:05:23;4.78;;;0.90;;
77726;SDS011;68312;53.502;10.030;2023-04-03T13:07:51;4.55;;;0.70;;
77726;SDS011;68312;53.502;10.030;2023-04-03T13:10:35;3.28;;;0.50;;
77726;SDS011;68312;53.502;10.030;2023-04-03T13:13:31;3.13;;;0.70;;
77726;SDS011;68312;53.502;10.030;2023-04-03T13:15:57;3.05;;;0.82;;
77726;SDS011;68312;53.502;10.030;2023-04-03T13:18:29;3.95;;;1.00;;
77726;SDS011;68312;53.502;10.030;2023-04-03T13:21:13;3.17;;;0.60;;
77726;SDS011;68312;53.502;10.030;2023-04-03T13:23:47;3.85;;;0.60;;
77726;SDS011;68312;53.502;10.030;2023-04-03T13:26:20;2.72;;;0.82;;
77726;SDS011;68312;53.502;10.030;2023-04-03T13:28:57;3.75;;;0.75;;
77726;SDS011;68312;53.502;10.030;2023-04-03T13:31:29;2.25;;;0.60;;
77726;SDS011;68312;53.502;10.030;2023-04-03T13:34:05;4.05;;;0.77;;
77726;SDS011;68312;53.502;10.030;2023-04-03T13:36:39;2.80;;;0.82;;
77726;SDS011;68312;53.502;10.030;2023-04-03T13:39:22;4.40;;;1.02;;
77726;SDS011;68312;53.502;10.030;2023-04-03T13:42:00;3.78;;;0.80;;
77726;SDS011;68312;53.502;10.030;2023-04-03T13:44:41;3.35;;;0.90;;
77726;SDS011;68312;53.502;10.030;2023-04-03T13:49:40;1.83;;;0.60;;
77726;SDS011;68312;53.502;10.030;2023-04-03T13:55:39;2.67;;;0.60;;
77726;SDS011;68312;53.502;10.030;2023-04-03T13:58:28;3.15;;;0.80;;
77726;SDS011;68312;53.502;10.030;2023-04-03T14:07:12;2.70;;;0.80;;
77726;SDS011;68312;53.502;10.030;2023-04-03T14:12:13;4.65;;;1.17;;
77726;SDS011;68312;53.502;10.030;2023-04-03T14:14:51;2.10;;;0.70;;
77726;SDS011;68312;53.502;10.030;2023-04-03T14:17:19;3.13;;;0.80;;
77726;SDS011;68312;53.502;10.030;2023-04-03T14:19:50;3.15;;;0.90;;
77726;SDS011;68312;53.502;10.030;2023-04-03T14:22:20;2.65;;;0.57;;
77726;SDS011;68312;53.502;10.030;2023-04-03T14:24:52;4.90;;;0.70;;
77726;SDS011;68312;53.502;10.030;2023-04-03T14:27:22;4.80;;;0.77;;
77726;SDS011;68312;53.502;10.030;2023-04-03T14:30:03;3.60;;;0.80;;
77726;SDS011;68312;53.502;10.030;2023-04-03T14:32:38;3.25;;;0.60;;
77726;SDS011;68312;53.502;10.030;2023-04-03T14:35:04;2.95;;;1.00;;
77726;SDS011;68312;53.502;10.030;2023-04-03T14:37:31;4.03;;;0.80;;
77726;SDS011;68312;53.502;10.030;2023-04-03T14:39:58;1.77;;;0.75;;
77726;SDS011;68312;53.502;10.030;2023-04-03T14:42:31;2.15;;;0.73;;
77726;SDS011;68312;53.502;10.030;2023-04-03T14:45:02;3.75;;;0.63;;
77726;SDS011;68312;53.502;10.030;2023-04-03T14:47:36;1.65;;;0.60;;
77726;SDS011;68312;53.502;10.030;2023-04-03T14:50:16;4.22;;;0.70;;
77726;SDS011;68312;53.502;10.030;2023-04-03T14:52:49;2.35;;;0.88;;
77726;SDS011;68312;53.502;10.030;2023-04-03T14:55:20;2.15;;;0.70;;
77726;SDS011;68312;53.502;10.030;2023-04-03T14:57:49;1.77;;;0.50;;
77726;SDS011;68312;53.502;10.030;2023-04-03T15:00:17;2.10;;;0.60;;
77726;SDS011;68312;53.502;10.030;2023-04-03T15:02:46;3.20;;;0.75;;
77726;SDS011;68312;53.502;10.030;2023-04-03T15:05:13;1.50;;;0.65;;
77726;SDS011;68312;53.502;10.030;2023-04-03T15:07:41;2.42;;;0.70;;
77726;SDS011;68312;53.502;10.030;2023-04-03T15:10:23;2.45;;;0.60;;
77726;SDS011;68312;53.502;10.030;2023-04-03T15:12:53;5.00;;;1.05;;
77726;SDS011;68312;53.502;10.030;2023-04-03T15:15:21;3.42;;;1.13;;
77726;SDS011;68312;53.502;10.030;2023-04-03T15:17:52;2.30;;;0.60;;
77726;SDS011;68312;53.502;10.030;2023-04-03T15:22:51;2.35;;;0.70;;
77726;SDS011;68312;53.502;10.030;2023-04-03T15:25:18;2.75;;;0.82;;
77726;SDS011;68312;53.502;10.030;2023-04-03T15:27:43;3.35;;;0.90;;
77726;SDS011;68312;53.502;10.030;2023-04-03T15:30:14;1.42;;;0.52;;
77726;SDS011;68312;53.502;10.030;2023-04-03T15:32:44;2.40;;;0.90;;
77726;SDS011;68312;53.502;10.030;2023-04-03T15:35:10;3.15;;;0.90;;
77726;SDS011;68312;53.502;10.030;2023-04-03T15:37:35;3.35;;;0.80;;
77726;SDS011;68312;53.502;10.030;2023-04-03T15:40:02;4.28;;;0.93;;
77726;SDS011;68312;53.502;10.030;2023-04-03T15:42:30;1.98;;;0.60;;
77726;SDS011;68312;53.502;10.030;2023-04-03T15:44:56;1.83;;;0.77;;
77726;SDS011;68312;53.502;10.030;2023-04-03T15:47:22;2.38;;;0.70;;
77726;SDS011;68312;53.502;10.030;2023-04-03T15:49:48;1.23;;;0.60;;
77726;SDS011;68312;53.502;10.030;2023-04-03T15:52:14;1.65;;;0.52;;
77726;SDS011;68312;53.502;10.030;2023-04-03T15:54:39;3.60;;;0.90;;
77726;SDS011;68312;53.502;10.030;2023-04-03T15:57:05;2.22;;;0.70;;
77726;SDS011;68312;53.502;10.030;2023-04-03T15:59:30;1.83;;;0.70;;
77726;SDS011;68312;53.502;10.030;2023-04-03T16:01:57;3.20;;;1.00;;
77726;SDS011;68312;53.502;10.030;2023-04-03T16:04:24;3.30;;;1.20;;
77726;SDS011;68312;53.502;10.030;2023-04-03T16:06:50;3.42;;;1.13;;
77726;SDS011;68312;53.502;10.030;2023-04-03T16:09:15;4.13;;;0.98;;
77726;SDS011;68312;53.502;10.030;2023-04-03T16:11:41;4.47;;;0.82;;
77726;SDS011;68312;53.502;10.030;2023-04-03T16:14:08;3.17;;;0.90;;
77726;SDS011;68312;53.502;10.030;2023-04-03T16:16:35;3.05;;;0.98;;
77726;SDS011;68312;53.502;10.030;2023-04-03T16:19:02;2.53;;;0.85;;
77726;SDS011;68312;53.502;10.030;2023-04-03T16:21:29;2.88;;;0.70;;
77726;SDS011;68312;53.502;10.030;2023-04-03T16:23:59;3.10;;;0.80;;
77726;SDS011;68312;53.502;10.030;2023-04-03T16:26:27;2.45;;;0.75;;
77726;SDS011;68312;53.502;10.030;2023-04-03T16:28:52;1.02;;;0.57;;
77726;SDS011;68312;53.502;10.030;2023-04-03T16:31:19;1.92;;;0.75;;
77726;SDS011;68312;53.502;10.030;2023-04-03T16:33:49;2.47;;;0.60;;
77726;SDS011;68312;53.502;10.030;2023-04-03T16:36:14;2.20;;;0.73;;
77726;SDS011;68312;53.502;10.030;2023-04-03T16:38:40;3.88;;;0.60;;
77726;SDS011;68312;53.502;10.030;2023-04-03T16:41:06;1.95;;;0.65;;
77726;SDS011;68312;53.502;10.030;2023-04-03T16:43:31;3.53;;;0.70;;
77726;SDS011;68312;53.502;10.030;2023-04-03T16:45:58;2.03;;;0.70;;
77726;SDS011;68312;53.502;10.030;2023-04-03T16:48:26;3.05;;;0.90;;
77726;SDS011;68312;53.502;10.030;2023-04-03T16:50:52;4.53;;;0.85;;